Crane Hill, Alabama
Current Conditions -  °F | °C
As of 2:15 PM on Monday 24 Nov 2014 (Local Time) from KCMD Reporting Station
Scattered Clouds Scattered Clouds  
Wind Chill: 62°   Ceiling: Unl
Heat Index: 62°   Visibility: 10mi
Dew Point: 42°   Wind: 8mph
Humidity: 47%   Direction: 270°W
Pressure: 29.87"   Gusts: NA
Location:  34.09°N, 87.06°W
Report Text: KCMD 242015Z AUTO 27007KT 230V290 10SM SCT043 17/06 A2987 RMK AO2 T01690055
Loading
Personal Weather Stations






























Interactive Weather Map New forecast layout! Learn more

10-Day Weather Forecast

Advertisements
Track Severe Weather on mobile